sensor_id;sensor_type;location;lat;lon;timestamp;P1;durP1;ratioP1;P2;durP2;ratioP2
14316;SDS011;7242;50.858;6.586;2022-11-20T00:01:49;23.27;;;18.97;;
14316;SDS011;7242;50.858;6.586;2022-11-20T00:04:50;23.07;;;18.97;;
14316;SDS011;7242;50.858;6.586;2022-11-20T00:07:51;23.20;;;19.00;;
14316;SDS011;7242;50.858;6.586;2022-11-20T00:10:52;25.30;;;19.77;;
14316;SDS011;7242;50.858;6.586;2022-11-20T00:13:55;25.10;;;19.80;;
14316;SDS011;7242;50.858;6.586;2022-11-20T00:16:57;24.37;;;19.53;;
14316;SDS011;7242;50.858;6.586;2022-11-20T00:19:58;26.80;;;20.00;;
14316;SDS011;7242;50.858;6.586;2022-11-20T00:22:59;24.97;;;18.87;;
14316;SDS011;7242;50.858;6.586;2022-11-20T00:26:04;25.00;;;19.77;;
14316;SDS011;7242;50.858;6.586;2022-11-20T00:29:05;24.27;;;19.97;;
14316;SDS011;7242;50.858;6.586;2022-11-20T00:32:06;26.57;;;20.13;;
14316;SDS011;7242;50.858;6.586;2022-11-20T00:35:07;23.10;;;18.83;;
14316;SDS011;7242;50.858;6.586;2022-11-20T00:38:08;22.63;;;18.27;;
14316;SDS011;7242;50.858;6.586;2022-11-20T00:41:11;22.63;;;18.77;;
14316;SDS011;7242;50.858;6.586;2022-11-20T00:44:12;24.03;;;19.00;;
14316;SDS011;7242;50.858;6.586;2022-11-20T00:47:13;24.40;;;18.73;;
14316;SDS011;7242;50.858;6.586;2022-11-20T00:50:14;22.93;;;18.83;;
14316;SDS011;7242;50.858;6.586;2022-11-20T00:53:15;22.37;;;18.07;;
14316;SDS011;7242;50.858;6.586;2022-11-20T00:56:17;23.87;;;18.27;;
14316;SDS011;7242;50.858;6.586;2022-11-20T00:59:19;21.17;;;16.97;;
14316;SDS011;7242;50.858;6.586;2022-11-20T01:02:20;21.57;;;16.93;;
14316;SDS011;7242;50.858;6.586;2022-11-20T01:05:21;21.23;;;17.20;;
14316;SDS011;7242;50.858;6.586;2022-11-20T01:08:23;21.80;;;17.37;;
14316;SDS011;7242;50.858;6.586;2022-11-20T01:11:34;21.07;;;17.20;;
14316;SDS011;7242;50.858;6.586;2022-11-20T01:14:37;21.67;;;17.97;;
14316;SDS011;7242;50.858;6.586;2022-11-20T01:17:38;22.90;;;17.70;;
14316;SDS011;7242;50.858;6.586;2022-11-20T01:20:39;22.33;;;18.93;;
14316;SDS011;7242;50.858;6.586;2022-11-20T01:23:41;22.10;;;18.43;;
14316;SDS011;7242;50.858;6.586;2022-11-20T01:26:44;22.17;;;17.63;;
14316;SDS011;7242;50.858;6.586;2022-11-20T01:29:46;24.37;;;19.13;;
14316;SDS011;7242;50.858;6.586;2022-11-20T01:32:48;22.40;;;18.13;;
14316;SDS011;7242;50.858;6.586;2022-11-20T01:35:49;22.30;;;17.97;;
14316;SDS011;7242;50.858;6.586;2022-11-20T01:38:54;22.87;;;18.37;;
14316;SDS011;7242;50.858;6.586;2022-11-20T01:41:55;22.23;;;18.20;;
14316;SDS011;7242;50.858;6.586;2022-11-20T01:48:49;23.07;;;18.37;;
14316;SDS011;7242;50.858;6.586;2022-11-20T01:51:56;24.43;;;19.27;;
14316;SDS011;7242;50.858;6.586;2022-11-20T01:55:04;22.33;;;18.70;;
14316;SDS011;7242;50.858;6.586;2022-11-20T01:58:08;24.13;;;19.50;;
14316;SDS011;7242;50.858;6.586;2022-11-20T02:01:09;24.67;;;19.57;;
14316;SDS011;7242;50.858;6.586;2022-11-20T02:04:11;25.60;;;19.83;;
14316;SDS011;7242;50.858;6.586;2022-11-20T02:07:14;25.10;;;19.27;;
14316;SDS011;7242;50.858;6.586;2022-11-20T02:10:15;25.80;;;18.93;;
14316;SDS011;7242;50.858;6.586;2022-11-20T02:13:17;25.60;;;19.90;;
14316;SDS011;7242;50.858;6.586;2022-11-20T02:16:37;26.73;;;19.93;;
14316;SDS011;7242;50.858;6.586;2022-11-20T02:19:40;25.97;;;19.73;;
14316;SDS011;7242;50.858;6.586;2022-11-20T02:22:58;25.83;;;19.57;;
14316;SDS011;7242;50.858;6.586;2022-11-20T02:26:01;25.73;;;19.33;;
14316;SDS011;7242;50.858;6.586;2022-11-20T02:29:03;24.33;;;19.30;;
14316;SDS011;7242;50.858;6.586;2022-11-20T02:32:04;25.77;;;20.17;;
14316;SDS011;7242;50.858;6.586;2022-11-20T02:35:50;26.20;;;20.37;;
14316;SDS011;7242;50.858;6.586;2022-11-20T02:38:26;25.63;;;20.30;;
14316;SDS011;7242;50.858;6.586;2022-11-20T02:41:36;27.13;;;21.10;;
14316;SDS011;7242;50.858;6.586;2022-11-20T02:44:37;26.33;;;20.37;;
14316;SDS011;7242;50.858;6.586;2022-11-20T02:47:39;28.00;;;20.60;;
14316;SDS011;7242;50.858;6.586;2022-11-20T02:50:40;27.33;;;21.47;;
14316;SDS011;7242;50.858;6.586;2022-11-20T02:53:41;28.80;;;22.00;;
14316;SDS011;7242;50.858;6.586;2022-11-20T02:56:43;29.37;;;20.77;;
14316;SDS011;7242;50.858;6.586;2022-11-20T02:59:44;30.00;;;21.73;;
14316;SDS011;7242;50.858;6.586;2022-11-20T03:02:45;27.93;;;21.57;;
14316;SDS011;7242;50.858;6.586;2022-11-20T03:05:46;29.27;;;21.67;;
14316;SDS011;7242;50.858;6.586;2022-11-20T03:08:47;28.93;;;21.00;;
14316;SDS011;7242;50.858;6.586;2022-11-20T03:11:48;26.93;;;20.50;;
14316;SDS011;7242;50.858;6.586;2022-11-20T03:14:49;26.40;;;20.80;;
14316;SDS011;7242;50.858;6.586;2022-11-20T03:17:54;24.83;;;18.97;;
14316;SDS011;7242;50.858;6.586;2022-11-20T03:20:58;25.20;;;19.47;;
14316;SDS011;7242;50.858;6.586;2022-11-20T03:24:00;26.57;;;19.33;;
14316;SDS011;7242;50.858;6.586;2022-11-20T03:27:01;27.27;;;20.77;;
14316;SDS011;7242;50.858;6.586;2022-11-20T03:30:02;26.33;;;20.40;;
14316;SDS011;7242;50.858;6.586;2022-11-20T03:33:04;28.60;;;20.10;;
14316;SDS011;7242;50.858;6.586;2022-11-20T03:36:06;26.70;;;19.97;;
14316;SDS011;7242;50.858;6.586;2022-11-20T03:39:08;26.70;;;20.50;;
14316;SDS011;7242;50.858;6.586;2022-11-20T03:42:10;26.93;;;19.57;;
14316;SDS011;7242;50.858;6.586;2022-11-20T03:45:31;25.93;;;19.67;;
14316;SDS011;7242;50.858;6.586;2022-11-20T03:48:35;26.50;;;20.57;;
14316;SDS011;7242;50.858;6.586;2022-11-20T03:51:36;26.37;;;18.70;;
14316;SDS011;7242;50.858;6.586;2022-11-20T03:54:37;24.80;;;19.17;;
14316;SDS011;7242;50.858;6.586;2022-11-20T03:57:38;28.07;;;20.80;;
14316;SDS011;7242;50.858;6.586;2022-11-20T04:00:40;26.17;;;19.53;;
14316;SDS011;7242;50.858;6.586;2022-11-20T04:03:41;26.67;;;20.47;;
14316;SDS011;7242;50.858;6.586;2022-11-20T04:06:42;26.10;;;20.23;;
14316;SDS011;7242;50.858;6.586;2022-11-20T04:09:43;25.73;;;19.13;;
14316;SDS011;7242;50.858;6.586;2022-11-20T04:12:44;27.50;;;20.63;;
14316;SDS011;7242;50.858;6.586;2022-11-20T04:15:46;26.73;;;19.07;;
14316;SDS011;7242;50.858;6.586;2022-11-20T04:18:47;27.50;;;20.30;;
14316;SDS011;7242;50.858;6.586;2022-11-20T04:21:48;29.53;;;21.27;;
14316;SDS011;7242;50.858;6.586;2022-11-20T04:24:49;27.00;;;19.60;;
14316;SDS011;7242;50.858;6.586;2022-11-20T04:27:50;25.77;;;19.47;;
14316;SDS011;7242;50.858;6.586;2022-11-20T04:30:51;27.33;;;20.20;;
14316;SDS011;7242;50.858;6.586;2022-11-20T04:33:52;25.70;;;19.03;;
14316;SDS011;7242;50.858;6.586;2022-11-20T04:36:53;26.07;;;20.67;;
14316;SDS011;7242;50.858;6.586;2022-11-20T04:39:54;25.07;;;18.83;;
14316;SDS011;7242;50.858;6.586;2022-11-20T04:42:56;27.70;;;20.43;;
14316;SDS011;7242;50.858;6.586;2022-11-20T04:45:57;25.30;;;19.67;;
14316;SDS011;7242;50.858;6.586;2022-11-20T04:48:59;26.13;;;19.57;;
14316;SDS011;7242;50.858;6.586;2022-11-20T04:51:59;23.97;;;18.00;;
14316;SDS011;7242;50.858;6.586;2022-11-20T04:55:01;28.30;;;20.30;;
14316;SDS011;7242;50.858;6.586;2022-11-20T04:58:02;24.70;;;18.80;;
14316;SDS011;7242;50.858;6.586;2022-11-20T05:01:04;24.10;;;19.00;;
14316;SDS011;7242;50.858;6.586;2022-11-20T05:04:06;25.83;;;19.20;;
14316;SDS011;7242;50.858;6.586;2022-11-20T05:07:07;27.03;;;19.77;;
14316;SDS011;7242;50.858;6.586;2022-11-20T05:10:08;24.20;;;18.47;;
14316;SDS011;7242;50.858;6.586;2022-11-20T05:13:09;25.83;;;19.57;;
14316;SDS011;7242;50.858;6.586;2022-11-20T05:16:12;26.80;;;19.90;;
14316;SDS011;7242;50.858;6.586;2022-11-20T05:19:14;25.07;;;18.87;;
14316;SDS011;7242;50.858;6.586;2022-11-20T05:22:15;25.63;;;19.27;;
14316;SDS011;7242;50.858;6.586;2022-11-20T05:25:16;24.20;;;18.77;;
14316;SDS011;7242;50.858;6.586;2022-11-20T05:28:17;23.90;;;18.60;;
14316;SDS011;7242;50.858;6.586;2022-11-20T05:31:21;23.70;;;18.83;;
14316;SDS011;7242;50.858;6.586;2022-11-20T05:34:23;24.90;;;19.33;;
14316;SDS011;7242;50.858;6.586;2022-11-20T05:37:24;24.63;;;19.47;;
14316;SDS011;7242;50.858;6.586;2022-11-20T05:40:25;23.40;;;18.70;;
14316;SDS011;7242;50.858;6.586;2022-11-20T05:43:26;25.13;;;20.13;;
14316;SDS011;7242;50.858;6.586;2022-11-20T05:46:27;24.27;;;19.03;;
14316;SDS011;7242;50.858;6.586;2022-11-20T05:49:28;26.10;;;19.33;;
14316;SDS011;7242;50.858;6.586;2022-11-20T05:52:30;27.10;;;19.90;;
14316;SDS011;7242;50.858;6.586;2022-11-20T05:55:31;25.57;;;19.23;;
14316;SDS011;7242;50.858;6.586;2022-11-20T05:58:32;27.20;;;20.50;;
14316;SDS011;7242;50.858;6.586;2022-11-20T06:01:33;24.97;;;19.37;;
14316;SDS011;7242;50.858;6.586;2022-11-20T06:04:36;25.20;;;18.60;;
14316;SDS011;7242;50.858;6.586;2022-11-20T06:07:37;27.80;;;20.47;;
14316;SDS011;7242;50.858;6.586;2022-11-20T06:10:38;24.57;;;18.67;;
14316;SDS011;7242;50.858;6.586;2022-11-20T06:13:40;24.47;;;19.53;;
14316;SDS011;7242;50.858;6.586;2022-11-20T06:16:41;24.57;;;19.23;;
14316;SDS011;7242;50.858;6.586;2022-11-20T06:19:42;26.03;;;19.93;;
14316;SDS011;7242;50.858;6.586;2022-11-20T06:22:43;28.17;;;20.47;;
14316;SDS011;7242;50.858;6.586;2022-11-20T06:25:44;25.00;;;19.67;;
14316;SDS011;7242;50.858;6.586;2022-11-20T06:28:45;26.33;;;19.47;;
14316;SDS011;7242;50.858;6.586;2022-11-20T06:31:47;27.23;;;20.13;;
14316;SDS011;7242;50.858;6.586;2022-11-20T06:34:48;28.57;;;20.60;;
14316;SDS011;7242;50.858;6.586;2022-11-20T06:37:49;27.20;;;20.13;;
14316;SDS011;7242;50.858;6.586;2022-11-20T06:40:50;27.73;;;20.73;;
14316;SDS011;7242;50.858;6.586;2022-11-20T06:43:51;27.20;;;20.33;;
14316;SDS011;7242;50.858;6.586;2022-11-20T06:46:52;28.87;;;20.30;;
14316;SDS011;7242;50.858;6.586;2022-11-20T06:49:53;29.60;;;21.60;;
14316;SDS011;7242;50.858;6.586;2022-11-20T06:52:54;27.70;;;21.10;;
14316;SDS011;7242;50.858;6.586;2022-11-20T06:55:55;27.33;;;19.93;;
14316;SDS011;7242;50.858;6.586;2022-11-20T06:58:57;28.17;;;20.30;;
14316;SDS011;7242;50.858;6.586;2022-11-20T07:01:58;29.40;;;21.57;;
14316;SDS011;7242;50.858;6.586;2022-11-20T07:05:00;29.40;;;21.10;;
14316;SDS011;7242;50.858;6.586;2022-11-20T07:08:01;30.10;;;22.23;;
14316;SDS011;7242;50.858;6.586;2022-11-20T07:11:04;29.77;;;21.63;;
14316;SDS011;7242;50.858;6.586;2022-11-20T07:14:06;29.33;;;20.90;;
14316;SDS011;7242;50.858;6.586;2022-11-20T07:17:06;28.77;;;21.10;;
14316;SDS011;7242;50.858;6.586;2022-11-20T07:20:07;28.73;;;21.83;;
14316;SDS011;7242;50.858;6.586;2022-11-20T07:23:09;31.27;;;22.00;;
14316;SDS011;7242;50.858;6.586;2022-11-20T07:26:10;29.80;;;21.17;;
14316;SDS011;7242;50.858;6.586;2022-11-20T07:29:11;29.00;;;20.80;;
14316;SDS011;7242;50.858;6.586;2022-11-20T07:32:12;30.23;;;22.23;;
14316;SDS011;7242;50.858;6.586;2022-11-20T07:35:13;28.37;;;20.90;;
14316;SDS011;7242;50.858;6.586;2022-11-20T07:38:14;30.13;;;21.87;;
14316;SDS011;7242;50.858;6.586;2022-11-20T07:41:15;30.27;;;21.93;;
14316;SDS011;7242;50.858;6.586;2022-11-20T07:44:16;36.37;;;23.77;;
14316;SDS011;7242;50.858;6.586;2022-11-20T07:47:17;30.17;;;21.13;;
14316;SDS011;7242;50.858;6.586;2022-11-20T07:50:18;34.37;;;23.40;;
14316;SDS011;7242;50.858;6.586;2022-11-20T07:53:20;31.63;;;22.80;;
14316;SDS011;7242;50.858;6.586;2022-11-20T07:56:21;33.10;;;23.00;;
14316;SDS011;7242;50.858;6.586;2022-11-20T07:59:22;32.57;;;22.63;;
14316;SDS011;7242;50.858;6.586;2022-11-20T08:02:23;31.80;;;22.80;;
14316;SDS011;7242;50.858;6.586;2022-11-20T08:05:24;34.07;;;23.27;;
14316;SDS011;7242;50.858;6.586;2022-11-20T08:08:26;31.47;;;21.80;;
14316;SDS011;7242;50.858;6.586;2022-11-20T08:11:28;27.97;;;20.47;;
14316;SDS011;7242;50.858;6.586;2022-11-20T08:14:47;28.00;;;19.40;;
14316;SDS011;7242;50.858;6.586;2022-11-20T08:17:48;28.43;;;18.70;;
14316;SDS011;7242;50.858;6.586;2022-11-20T08:20:49;22.57;;;17.17;;
14316;SDS011;7242;50.858;6.586;2022-11-20T08:23:50;22.87;;;17.00;;
14316;SDS011;7242;50.858;6.586;2022-11-20T08:26:51;25.93;;;19.33;;
14316;SDS011;7242;50.858;6.586;2022-11-20T08:29:53;28.67;;;20.90;;
14316;SDS011;7242;50.858;6.586;2022-11-20T08:32:54;29.40;;;21.00;;
14316;SDS011;7242;50.858;6.586;2022-11-20T08:36:02;28.03;;;20.87;;
14316;SDS011;7242;50.858;6.586;2022-11-20T08:39:03;32.50;;;20.90;;
14316;SDS011;7242;50.858;6.586;2022-11-20T08:42:07;29.43;;;20.57;;
14316;SDS011;7242;50.858;6.586;2022-11-20T08:45:08;28.97;;;20.30;;
14316;SDS011;7242;50.858;6.586;2022-11-20T08:48:10;27.40;;;20.03;;
14316;SDS011;7242;50.858;6.586;2022-11-20T08:51:11;28.73;;;20.43;;
14316;SDS011;7242;50.858;6.586;2022-11-20T08:54:13;28.70;;;20.47;;
14316;SDS011;7242;50.858;6.586;2022-11-20T08:57:14;28.53;;;20.30;;
14316;SDS011;7242;50.858;6.586;2022-11-20T09:00:15;27.40;;;19.93;;
14316;SDS011;7242;50.858;6.586;2022-11-20T09:03:16;25.63;;;19.17;;
14316;SDS011;7242;50.858;6.586;2022-11-20T09:06:17;25.47;;;19.70;;
14316;SDS011;7242;50.858;6.586;2022-11-20T09:09:19;24.90;;;18.83;;
14316;SDS011;7242;50.858;6.586;2022-11-20T09:12:20;24.53;;;18.53;;
14316;SDS011;7242;50.858;6.586;2022-11-20T09:15:21;25.27;;;18.80;;
14316;SDS011;7242;50.858;6.586;2022-11-20T09:18:23;24.60;;;17.87;;
14316;SDS011;7242;50.858;6.586;2022-11-20T09:21:25;26.80;;;18.17;;
14316;SDS011;7242;50.858;6.586;2022-11-20T09:24:26;27.50;;;18.50;;
14316;SDS011;7242;50.858;6.586;2022-11-20T09:27:28;23.07;;;17.90;;
14316;SDS011;7242;50.858;6.586;2022-11-20T09:30:29;25.70;;;17.90;;
14316;SDS011;7242;50.858;6.586;2022-11-20T09:33:31;24.83;;;18.57;;
14316;SDS011;7242;50.858;6.586;2022-11-20T09:36:32;24.17;;;17.13;;
14316;SDS011;7242;50.858;6.586;2022-11-20T09:39:33;25.33;;;18.37;;
14316;SDS011;7242;50.858;6.586;2022-11-20T09:42:45;22.47;;;16.50;;
14316;SDS011;7242;50.858;6.586;2022-11-20T09:46:33;22.47;;;16.13;;
14316;SDS011;7242;50.858;6.586;2022-11-20T09:49:19;24.50;;;18.33;;
14316;SDS011;7242;50.858;6.586;2022-11-20T09:55:43;22.83;;;18.07;;
14316;SDS011;7242;50.858;6.586;2022-11-20T09:58:54;23.07;;;17.83;;
14316;SDS011;7242;50.858;6.586;2022-11-20T10:01:56;24.17;;;17.77;;
14316;SDS011;7242;50.858;6.586;2022-11-20T10:05:05;24.77;;;18.77;;
14316;SDS011;7242;50.858;6.586;2022-11-20T10:08:28;24.73;;;18.43;;
14316;SDS011;7242;50.858;6.586;2022-11-20T10:11:34;26.03;;;19.07;;
14316;SDS011;7242;50.858;6.586;2022-11-20T10:31:27;26.57;;;19.70;;
14316;SDS011;7242;50.858;6.586;2022-11-20T10:34:41;32.40;;;20.83;;
14316;SDS011;7242;50.858;6.586;2022-11-20T10:37:44;29.37;;;21.67;;
14316;SDS011;7242;50.858;6.586;2022-11-20T10:40:57;27.90;;;20.20;;
14316;SDS011;7242;50.858;6.586;2022-11-20T10:44:21;28.57;;;20.60;;
14316;SDS011;7242;50.858;6.586;2022-11-20T10:47:45;27.27;;;20.57;;
14316;SDS011;7242;50.858;6.586;2022-11-20T10:50:49;27.87;;;20.73;;
14316;SDS011;7242;50.858;6.586;2022-11-20T10:54:12;28.80;;;21.40;;
14316;SDS011;7242;50.858;6.586;2022-11-20T11:00:38;28.97;;;19.73;;
14316;SDS011;7242;50.858;6.586;2022-11-20T11:03:39;26.40;;;19.60;;
14316;SDS011;7242;50.858;6.586;2022-11-20T11:06:43;26.87;;;19.63;;
14316;SDS011;7242;50.858;6.586;2022-11-20T11:09:50;26.63;;;19.20;;
14316;SDS011;7242;50.858;6.586;2022-11-20T11:12:52;26.73;;;19.80;;
14316;SDS011;7242;50.858;6.586;2022-11-20T11:15:54;24.67;;;18.57;;
14316;SDS011;7242;50.858;6.586;2022-11-20T11:19:05;26.30;;;19.57;;
14316;SDS011;7242;50.858;6.586;2022-11-20T11:22:09;25.33;;;18.57;;
14316;SDS011;7242;50.858;6.586;2022-11-20T11:25:18;24.37;;;18.87;;
14316;SDS011;7242;50.858;6.586;2022-11-20T11:28:21;24.57;;;18.40;;
14316;SDS011;7242;50.858;6.586;2022-11-20T11:31:26;24.60;;;18.23;;
14316;SDS011;7242;50.858;6.586;2022-11-20T11:34:34;24.37;;;17.87;;
14316;SDS011;7242;50.858;6.586;2022-11-20T11:37:35;23.37;;;17.47;;
14316;SDS011;7242;50.858;6.586;2022-11-20T11:40:39;26.20;;;18.40;;
14316;SDS011;7242;50.858;6.586;2022-11-20T11:43:48;25.37;;;18.37;;
14316;SDS011;7242;50.858;6.586;2022-11-20T11:47:43;25.07;;;17.13;;
14316;SDS011;7242;50.858;6.586;2022-11-20T11:50:36;23.23;;;17.67;;
14316;SDS011;7242;50.858;6.586;2022-11-20T11:53:47;25.47;;;18.37;;
14316;SDS011;7242;50.858;6.586;2022-11-20T11:56:49;24.57;;;17.73;;
14316;SDS011;7242;50.858;6.586;2022-11-20T12:02:54;23.90;;;17.30;;
14316;SDS011;7242;50.858;6.586;2022-11-20T12:06:10;23.13;;;16.47;;
14316;SDS011;7242;50.858;6.586;2022-11-20T12:09:16;23.57;;;17.50;;
14316;SDS011;7242;50.858;6.586;2022-11-20T12:12:27;23.77;;;17.83;;
14316;SDS011;7242;50.858;6.586;2022-11-20T12:15:37;20.77;;;16.50;;
14316;SDS011;7242;50.858;6.586;2022-11-20T12:18:43;24.30;;;17.50;;
14316;SDS011;7242;50.858;6.586;2022-11-20T12:21:54;23.37;;;16.70;;
14316;SDS011;7242;50.858;6.586;2022-11-20T12:34:31;23.27;;;17.17;;
14316;SDS011;7242;50.858;6.586;2022-11-20T12:37:53;23.13;;;16.90;;
14316;SDS011;7242;50.858;6.586;2022-11-20T13:07:51;23.93;;;17.07;;
14316;SDS011;7242;50.858;6.586;2022-11-20T13:11:06;24.00;;;17.23;;
14316;SDS011;7242;50.858;6.586;2022-11-20T13:17:25;26.97;;;18.33;;
14316;SDS011;7242;50.858;6.586;2022-11-20T13:20:30;24.37;;;17.40;;
14316;SDS011;7242;50.858;6.586;2022-11-20T13:23:34;22.17;;;16.63;;
14316;SDS011;7242;50.858;6.586;2022-11-20T13:26:35;23.37;;;16.77;;
14316;SDS011;7242;50.858;6.586;2022-11-20T13:29:36;23.77;;;17.53;;
14316;SDS011;7242;50.858;6.586;2022-11-20T13:32:47;23.70;;;17.30;;
14316;SDS011;7242;50.858;6.586;2022-11-20T13:39:24;23.20;;;17.03;;
14316;SDS011;7242;50.858;6.586;2022-11-20T13:42:29;21.80;;;16.57;;
14316;SDS011;7242;50.858;6.586;2022-11-20T13:45:31;22.87;;;16.23;;
14316;SDS011;7242;50.858;6.586;2022-11-20T13:48:33;22.57;;;16.23;;
14316;SDS011;7242;50.858;6.586;2022-11-20T13:51:45;21.03;;;15.80;;
14316;SDS011;7242;50.858;6.586;2022-11-20T13:54:56;21.63;;;16.33;;
14316;SDS011;7242;50.858;6.586;2022-11-20T14:01:11;20.93;;;16.13;;
14316;SDS011;7242;50.858;6.586;2022-11-20T14:04:18;21.10;;;15.77;;
14316;SDS011;7242;50.858;6.586;2022-11-20T14:07:21;20.60;;;16.20;;
14316;SDS011;7242;50.858;6.586;2022-11-20T14:10:28;21.97;;;15.37;;
14316;SDS011;7242;50.858;6.586;2022-11-20T14:13:29;22.57;;;16.27;;
14316;SDS011;7242;50.858;6.586;2022-11-20T14:16:32;25.03;;;17.10;;
14316;SDS011;7242;50.858;6.586;2022-11-20T14:19:34;21.17;;;16.60;;
14316;SDS011;7242;50.858;6.586;2022-11-20T14:22:37;23.17;;;16.63;;
14316;SDS011;7242;50.858;6.586;2022-11-20T14:25:42;21.10;;;15.87;;
14316;SDS011;7242;50.858;6.586;2022-11-20T14:28:47;22.63;;;16.60;;
14316;SDS011;7242;50.858;6.586;2022-11-20T14:31:50;24.63;;;16.50;;
14316;SDS011;7242;50.858;6.586;2022-11-20T14:34:52;25.73;;;17.20;;
14316;SDS011;7242;50.858;6.586;2022-11-20T14:37:53;24.70;;;17.43;;
14316;SDS011;7242;50.858;6.586;2022-11-20T14:41:05;39.63;;;29.73;;
14316;SDS011;7242;50.858;6.586;2022-11-20T14:44:08;33.57;;;24.20;;
14316;SDS011;7242;50.858;6.586;2022-11-20T14:47:10;24.37;;;17.40;;
14316;SDS011;7242;50.858;6.586;2022-11-20T14:50:27;23.20;;;16.87;;
14316;SDS011;7242;50.858;6.586;2022-11-20T14:53:29;22.57;;;16.47;;
14316;SDS011;7242;50.858;6.586;2022-11-20T14:56:30;35.77;;;25.83;;
14316;SDS011;7242;50.858;6.586;2022-11-20T14:59:33;77.27;;;52.20;;
14316;SDS011;7242;50.858;6.586;2022-11-20T15:02:38;55.60;;;40.53;;
14316;SDS011;7242;50.858;6.586;2022-11-20T15:05:49;33.00;;;24.63;;
14316;SDS011;7242;50.858;6.586;2022-11-20T15:08:51;33.50;;;24.37;;
14316;SDS011;7242;50.858;6.586;2022-11-20T15:11:56;23.07;;;18.03;;
14316;SDS011;7242;50.858;6.586;2022-11-20T15:14:58;25.37;;;18.00;;
14316;SDS011;7242;50.858;6.586;2022-11-20T15:18:00;23.87;;;17.03;;
14316;SDS011;7242;50.858;6.586;2022-11-20T15:21:02;22.73;;;16.23;;
14316;SDS011;7242;50.858;6.586;2022-11-20T15:24:07;24.33;;;16.47;;
14316;SDS011;7242;50.858;6.586;2022-11-20T15:27:09;25.93;;;19.83;;
14316;SDS011;7242;50.858;6.586;2022-11-20T15:30:15;22.57;;;15.70;;
14316;SDS011;7242;50.858;6.586;2022-11-20T15:33:18;23.33;;;17.87;;
14316;SDS011;7242;50.858;6.586;2022-11-20T15:36:19;23.57;;;17.73;;
14316;SDS011;7242;50.858;6.586;2022-11-20T15:39:20;20.13;;;14.53;;
14316;SDS011;7242;50.858;6.586;2022-11-20T15:42:21;18.27;;;12.73;;
14316;SDS011;7242;50.858;6.586;2022-11-20T15:45:22;19.20;;;13.53;;
14316;SDS011;7242;50.858;6.586;2022-11-20T15:48:24;14.27;;;10.83;;
14316;SDS011;7242;50.858;6.586;2022-11-20T15:51:38;12.90;;;8.70;;
14316;SDS011;7242;50.858;6.586;2022-11-20T15:54:41;10.73;;;7.83;;
14316;SDS011;7242;50.858;6.586;2022-11-20T15:57:42;9.87;;;6.13;;
14316;SDS011;7242;50.858;6.586;2022-11-20T16:00:44;12.03;;;7.43;;
14316;SDS011;7242;50.858;6.586;2022-11-20T16:03:45;4.17;;;2.97;;
14316;SDS011;7242;50.858;6.586;2022-11-20T16:06:46;14.57;;;9.33;;
14316;SDS011;7242;50.858;6.586;2022-11-20T16:09:48;7.80;;;5.13;;
14316;SDS011;7242;50.858;6.586;2022-11-20T16:12:49;6.83;;;3.83;;
14316;SDS011;7242;50.858;6.586;2022-11-20T16:19:30;4.60;;;3.17;;
14316;SDS011;7242;50.858;6.586;2022-11-20T16:22:31;4.43;;;3.10;;
14316;SDS011;7242;50.858;6.586;2022-11-20T16:25:32;3.93;;;3.00;;
14316;SDS011;7242;50.858;6.586;2022-11-20T16:28:34;4.17;;;2.17;;
14316;SDS011;7242;50.858;6.586;2022-11-20T16:31:35;3.50;;;2.40;;
14316;SDS011;7242;50.858;6.586;2022-11-20T16:34:37;3.60;;;2.50;;
14316;SDS011;7242;50.858;6.586;2022-11-20T16:37:38;4.80;;;2.30;;
14316;SDS011;7242;50.858;6.586;2022-11-20T16:40:39;2.97;;;2.30;;
14316;SDS011;7242;50.858;6.586;2022-11-20T16:43:44;3.00;;;2.10;;
14316;SDS011;7242;50.858;6.586;2022-11-20T16:46:46;4.30;;;2.03;;
14316;SDS011;7242;50.858;6.586;2022-11-20T16:49:48;3.57;;;2.00;;
14316;SDS011;7242;50.858;6.586;2022-11-20T16:52:49;2.97;;;1.80;;
14316;SDS011;7242;50.858;6.586;2022-11-20T16:55:50;4.30;;;2.00;;
14316;SDS011;7242;50.858;6.586;2022-11-20T16:58:53;3.90;;;2.43;;
14316;SDS011;7242;50.858;6.586;2022-11-20T17:01:54;2.50;;;1.60;;
14316;SDS011;7242;50.858;6.586;2022-11-20T17:04:55;4.27;;;1.87;;
14316;SDS011;7242;50.858;6.586;2022-11-20T17:07:57;1.50;;;1.40;;
14316;SDS011;7242;50.858;6.586;2022-11-20T17:11:03;2.17;;;1.37;;
14316;SDS011;7242;50.858;6.586;2022-11-20T17:14:05;2.07;;;1.50;;
14316;SDS011;7242;50.858;6.586;2022-11-20T17:17:09;2.13;;;1.47;;
14316;SDS011;7242;50.858;6.586;2022-11-20T17:20:11;2.57;;;1.50;;
14316;SDS011;7242;50.858;6.586;2022-11-20T17:23:12;2.73;;;2.07;;
14316;SDS011;7242;50.858;6.586;2022-11-20T17:26:17;2.23;;;1.80;;
14316;SDS011;7242;50.858;6.586;2022-11-20T17:29:23;2.07;;;1.80;;
14316;SDS011;7242;50.858;6.586;2022-11-20T17:32:24;2.47;;;1.43;;
14316;SDS011;7242;50.858;6.586;2022-11-20T17:35:25;2.03;;;1.60;;
14316;SDS011;7242;50.858;6.586;2022-11-20T17:38:26;2.20;;;1.60;;
14316;SDS011;7242;50.858;6.586;2022-11-20T17:41:28;1.40;;;1.30;;
14316;SDS011;7242;50.858;6.586;2022-11-20T17:44:29;4.57;;;3.50;;
14316;SDS011;7242;50.858;6.586;2022-11-20T17:47:33;2.57;;;2.37;;
14316;SDS011;7242;50.858;6.586;2022-11-20T17:50:35;2.37;;;2.00;;
14316;SDS011;7242;50.858;6.586;2022-11-20T17:53:37;3.00;;;2.00;;
14316;SDS011;7242;50.858;6.586;2022-11-20T17:56:38;5.50;;;4.30;;
14316;SDS011;7242;50.858;6.586;2022-11-20T17:59:57;4.47;;;3.83;;
14316;SDS011;7242;50.858;6.586;2022-11-20T18:02:59;10.40;;;7.50;;
14316;SDS011;7242;50.858;6.586;2022-11-20T18:06:13;8.67;;;7.33;;
14316;SDS011;7242;50.858;6.586;2022-11-20T18:09:15;5.93;;;4.20;;
14316;SDS011;7242;50.858;6.586;2022-11-20T18:12:16;9.47;;;4.90;;
14316;SDS011;7242;50.858;6.586;2022-11-20T18:15:17;6.97;;;3.23;;
14316;SDS011;7242;50.858;6.586;2022-11-20T18:18:18;7.33;;;3.53;;
14316;SDS011;7242;50.858;6.586;2022-11-20T18:21:19;9.80;;;7.20;;
14316;SDS011;7242;50.858;6.586;2022-11-20T18:24:20;7.53;;;4.37;;
14316;SDS011;7242;50.858;6.586;2022-11-20T18:27:22;8.00;;;3.50;;
14316;SDS011;7242;50.858;6.586;2022-11-20T18:30:23;8.13;;;3.37;;
14316;SDS011;7242;50.858;6.586;2022-11-20T18:33:24;7.83;;;3.40;;
14316;SDS011;7242;50.858;6.586;2022-11-20T18:36:25;10.77;;;4.30;;
14316;SDS011;7242;50.858;6.586;2022-11-20T18:39:28;11.77;;;4.73;;
14316;SDS011;7242;50.858;6.586;2022-11-20T18:42:29;17.47;;;8.23;;
14316;SDS011;7242;50.858;6.586;2022-11-20T18:45:49;18.30;;;7.50;;
14316;SDS011;7242;50.858;6.586;2022-11-20T18:48:51;16.23;;;4.60;;
14316;SDS011;7242;50.858;6.586;2022-11-20T18:51:53;14.33;;;4.10;;
14316;SDS011;7242;50.858;6.586;2022-11-20T18:54:54;13.50;;;4.60;;
14316;SDS011;7242;50.858;6.586;2022-11-20T18:57:55;14.23;;;4.97;;
14316;SDS011;7242;50.858;6.586;2022-11-20T19:01:03;11.07;;;4.47;;
14316;SDS011;7242;50.858;6.586;2022-11-20T19:04:08;14.60;;;3.83;;
14316;SDS011;7242;50.858;6.586;2022-11-20T19:07:12;12.47;;;4.10;;
14316;SDS011;7242;50.858;6.586;2022-11-20T19:10:13;11.30;;;3.80;;
14316;SDS011;7242;50.858;6.586;2022-11-20T19:13:15;14.37;;;4.00;;
14316;SDS011;7242;50.858;6.586;2022-11-20T19:16:17;13.80;;;4.00;;
14316;SDS011;7242;50.858;6.586;2022-11-20T19:19:20;14.33;;;4.07;;
14316;SDS011;7242;50.858;6.586;2022-11-20T19:22:21;10.10;;;3.40;;
14316;SDS011;7242;50.858;6.586;2022-11-20T19:25:23;10.10;;;3.77;;
14316;SDS011;7242;50.858;6.586;2022-11-20T19:28:24;11.40;;;3.90;;
14316;SDS011;7242;50.858;6.586;2022-11-20T19:31:25;15.37;;;4.20;;
14316;SDS011;7242;50.858;6.586;2022-11-20T19:34:26;14.30;;;3.57;;